Information Last Ob Photographs Calibration Meteogram Network Table Neighbors Monthly Summaries Observation History Wind Roses Custom Wind Roses Data Calendar Satellite Cloud Product Download

Most Recent Observation

This application displays the last observation received by the IEM from this site. The time stamp is in America/Chicago timezone.

Observation Local Time29 Feb 2024, 2:55 AM
Observation UTC Time2024-02-29T08:55:00Z
Air Temp [F]26.6
Maximum Air Temperature [F]26.6
Minimum Air Temperature [F]24.8
Dew Point [F]8.6
Wind DirectionSSW (190 degrees)
Wind Speed [knots]10
Altimeter [inches]30.21
Raw Observation/ProductKDNS 290855Z AUTO 19010KT 10SM CLR M03/M13 A3021 RMK AO2
Cloud Layer 1: CLR ( feet)

This data was provided by a JSON(P) webservice. You can find more JSON services.